Time;durP1;ratioP1;P1;durP2;ratioP2;P2;SDS_P1;SDS_P2;PMS_P1;PMS_P2;Temp;Humidity;BMP_temperature;BMP_pressure;BME280_temperature;BME280_humidity;BME280_pressure;Samples;Min_cycle;Max_cycle;Signal;HPM_P1;HPM_P2
2022/11/20 00:01:06;;;;;;;;;;;;;;;-143.57;100.00;51378.53;5061107;28;19987;-70
2022/11/20 00:03:32;;;;;;;;;;;;;;;-143.57;100.00;51372.56;5063264;28;20655;-70
2022/11/20 00:06:03;;;;;;;;;;;;;;;-143.57;100.00;51390.47;5060809;28;20624;-70
2022/11/20 00:08:30;;;;;;;;;;;;;;;-143.57;100.00;51378.53;5061346;28;20644;-70
2022/11/20 00:10:57;;;;;;;;;;;;;;;-143.57;100.00;51370.56;5059173;28;19959;-71
2022/11/20 00:13:23;;;;;;;;;;;;;;;-143.57;61.48;51346.72;5061412;28;19928;-71
2022/11/20 00:15:56;;;;;;;;;;;;;;;-143.57;58.77;51364.63;5057763;28;20517;-63
2022/11/20 00:18:23;;;;;;;;;;;;;;;-143.57;57.15;51358.66;5061416;28;20406;-65
2022/11/20 00:20:49;;;;;;;;;;;;;;;-143.57;58.31;51348.72;5055573;28;20373;-64
2022/11/20 00:26:16;;;;;;;;;;;;;;;-143.57;58.62;51303.00;5089903;27;20494;-68
2022/11/20 00:28:43;;;;;;;;;;;;;;;-143.57;58.92;51338.78;5095903;28;19978;-67
2022/11/20 00:31:13;;;;;;;;;;;;;;;-143.57;59.33;51299.00;5095881;28;20465;-67
2022/11/20 00:33:41;;;;;;;;;;;;;;;-143.57;59.36;51338.78;5097609;28;19924;-68
2022/11/20 00:36:18;;;;;;;;;;;;;;;-143.57;60.08;51318.88;5096384;28;19928;-67
2022/11/20 00:38:45;;;;;;;;;;;;;;;-143.57;59.76;51312.94;5102561;28;19928;-68
2022/11/20 00:41:13;;;;;;;;;;;;;;;-143.57;59.13;51320.88;5094950;27;20018;-67
2022/11/20 00:43:39;;;;;;;;;;;;;;;-143.57;58.25;51310.94;5100747;28;20041;-67
2022/11/20 00:46:08;;;;;;;;;;;;;;;-143.57;56.56;51346.72;5096611;28;19931;-67
2022/11/20 00:48:34;;;;;;;;;;;;;;;-143.57;55.81;51314.91;5099645;28;19955;-66
2022/11/20 00:51:01;;;;;;;;;;;;;;;-143.57;56.82;51326.84;5097212;28;20056;-67
2022/11/20 00:53:28;;;;;;;;;;;;;;;-143.57;55.79;51314.91;5098732;28;19931;-67
2022/11/20 00:55:57;;;;;;;;;;;;;;;-143.57;55.61;51306.97;5096429;27;20037;-67
2022/11/20 00:58:25;;;;;;;;;;;;;;;-143.57;54.49;51285.09;5093822;28;19932;-67
2022/11/20 01:00:51;;;;;;;;;;;;;;;-143.57;55.40;51326.84;5095235;28;20022;-67
2022/11/20 01:03:18;;;;;;;;;;;;;;;-143.57;54.77;51320.88;5101823;28;19990;-67
2022/11/20 01:05:52;;;;;;;;;;;;;;;-143.57;53.75;51342.75;5098053;28;20404;-67
2022/11/20 01:08:18;;;;;;;;;;;;;;;-143.57;54.46;51310.94;5092741;27;19939;-67
2022/11/20 01:10:45;;;;;;;;;;;;;;;-143.57;54.91;51310.94;5096301;28;19924;-67
2022/11/20 01:16:02;;;;;;;;;;;;;;;-143.57;54.99;51310.94;5092431;28;20600;-67
2022/11/20 01:18:28;;;;;;;;;;;;;;;-143.57;55.80;51291.06;5096698;28;21353;-67
2022/11/20 01:20:55;;;;;;;;;;;;;;;-143.57;53.62;51326.84;5099671;28;19927;-67
2022/11/20 01:23:22;;;;;;;;;;;;;;;-143.57;53.75;51314.91;5091957;28;19985;-67
2022/11/20 01:25:48;;;;;;;;;;;;;;;-143.57;54.09;51281.13;5096610;28;19927;-67
2022/11/20 01:28:15;;;;;;;;;;;;;;;-143.57;54.94;51338.78;5093402;28;19936;-67
2022/11/20 01:30:41;;;;;;;;;;;;;;;-143.57;54.81;51306.97;5100207;28;20002;-67
2022/11/20 01:33:08;;;;;;;;;;;;;;;-143.57;57.39;51322.88;5095134;28;19932;-67
2022/11/20 01:35:35;;;;;;;;;;;;;;;-143.57;58.03;51303.00;5092310;28;19928;-67
2022/11/20 01:38:01;;;;;;;;;;;;;;;-143.57;59.96;51330.81;5082480;28;19967;-67
2022/11/20 01:40:28;;;;;;;;;;;;;;;-143.57;56.83;51326.84;5076075;28;19924;-67
2022/11/20 01:43:22;;;;;;;;;;;;;;;-143.57;55.17;51287.09;5080639;28;19924;-67
2022/11/20 01:45:51;;;;;;;;;;;;;;;-143.57;54.24;51304.97;5078907;28;19997;-67
2022/11/20 01:48:19;;;;;;;;;;;;;;;-143.57;54.46;51306.97;5083492;28;19932;-67
2022/11/20 01:50:46;;;;;;;;;;;;;;;-143.57;59.19;51342.75;5077597;28;19928;-68
2022/11/20 01:53:14;;;;;;;;;;;;;;;-143.57;57.16;51303.00;5081302;28;20445;-68
2022/11/20 01:55:49;;;;;;;;;;;;;;;-143.57;54.74;51334.78;5077085;28;19985;-68
2022/11/20 01:58:18;;;;;;;;;;;;;;;-143.57;54.79;51318.88;5080642;28;20648;-68
2022/11/20 02:00:45;;;;;;;;;;;;;;;-143.57;53.93;51306.97;5077253;28;19939;-67
2022/11/20 02:03:19;;;;;;;;;;;;;;;-143.57;52.74;51314.91;5082661;28;19991;-68
2022/11/20 02:05:57;;;;;;;;;;;;;;;-143.57;51.60;51338.78;5077428;28;19932;-67
2022/11/20 02:08:24;;;;;;;;;;;;;;;-143.57;52.54;51275.16;5079254;28;19932;-68
2022/11/20 02:10:50;;;;;;;;;;;;;;;-143.57;58.54;51310.94;5080120;28;19935;-68
2022/11/20 02:16:03;;;;;;;;;;;;;;;-143.57;70.73;51326.84;5078230;28;19934;-68
2022/11/20 02:18:29;;;;;;;;;;;;;;;-143.57;72.27;51338.78;5078518;28;20741;-67
2022/11/20 02:21:03;;;;;;;;;;;;;;;-143.57;76.68;51334.78;5078719;28;21473;-68
2022/11/20 02:23:38;;;;;;;;;;;;;;;-143.57;79.10;51316.91;5078399;28;19934;-68
2022/11/20 02:26:07;;;;;;;;;;;;;;;-143.57;84.05;51326.84;5074570;28;19924;-68
2022/11/20 02:28:33;;;;;;;;;;;;;;;-143.57;78.56;51350.69;5075638;28;19932;-67
2022/11/20 02:31:00;;;;;;;;;;;;;;;-143.57;58.83;51330.81;5081081;28;19940;-68
2022/11/20 02:33:27;;;;;;;;;;;;;;;-143.57;56.61;51314.91;5075609;28;20081;-67
2022/11/20 02:35:54;;;;;;;;;;;;;;;-143.57;57.34;51306.97;5080716;28;19935;-67
2022/11/20 02:38:20;;;;;;;;;;;;;;;-143.57;65.88;51314.91;5079554;28;19928;-68
2022/11/20 02:40:47;;;;;;;;;;;;;;;-143.57;74.51;51342.75;5084135;28;20125;-68
2022/11/20 02:43:20;;;;;;;;;;;;;;;-143.57;81.82;51342.75;5080812;28;19932;-68
2022/11/20 02:45:47;;;;;;;;;;;;;;;-143.57;87.25;51299.00;5081109;28;19986;-68
2022/11/20 02:48:14;;;;;;;;;;;;;;;-143.57;87.79;51314.91;5080935;28;20595;-67
2022/11/20 02:50:40;;;;;;;;;;;;;;;-143.57;63.28;51314.91;5082117;28;19997;-67
2022/11/20 02:53:07;;;;;;;;;;;;;;;-143.57;57.73;51354.66;5078742;28;19928;-68
2022/11/20 02:55:34;;;;;;;;;;;;;;;-143.57;55.17;51301.00;5081685;28;19932;-68
2022/11/20 02:58:00;;;;;;;;;;;;;;;-143.57;54.03;51306.97;5080627;28;19971;-68
2022/11/20 03:00:27;;;;;;;;;;;;;;;-143.57;54.97;51322.88;5079518;28;19928;-67
2022/11/20 03:02:54;;;;;;;;;;;;;;;-143.57;55.74;51299.00;5085027;28;20181;-67
2022/11/20 03:05:20;;;;;;;;;;;;;;;-143.57;55.28;51306.97;5080591;28;19936;-68
2022/11/20 03:07:47;;;;;;;;;;;;;;;-143.57;53.98;51340.75;5081874;28;19932;-67
2022/11/20 03:10:14;;;;;;;;;;;;;;;-143.57;54.88;51318.88;5079287;28;20581;-67
2022/11/20 03:12:40;;;;;;;;;;;;;;;-143.57;55.48;51306.97;5082778;28;19935;-67
2022/11/20 03:15:07;;;;;;;;;;;;;;;-143.57;55.54;51295.03;5077568;28;20042;-68
2022/11/20 03:17:34;;;;;;;;;;;;;;;-143.57;56.93;51306.97;5083382;28;20027;-68
2022/11/20 03:20:01;;;;;;;;;;;;;;;-143.57;56.33;51312.94;5081105;28;20028;-68
2022/11/20 03:22:30;;;;;;;;;;;;;;;-143.57;56.32;51299.00;5079817;28;20013;-68
2022/11/20 03:24:57;;;;;;;;;;;;;;;-143.57;57.98;51326.84;5078912;28;20803;-66
2022/11/20 03:27:24;;;;;;;;;;;;;;;-143.57;57.62;51314.91;5076466;28;19951;-65
2022/11/20 03:29:50;;;;;;;;;;;;;;;-143.57;57.44;51303.00;5080462;28;19928;-66
2022/11/20 03:32:17;;;;;;;;;;;;;;;-143.57;57.67;51350.69;5077601;28;20618;-65
2022/11/20 03:34:44;;;;;;;;;;;;;;;-143.57;55.84;51306.97;5082388;28;20065;-64
2022/11/20 03:37:10;;;;;;;;;;;;;;;-143.57;55.31;51295.03;5079702;28;19928;-65
2022/11/20 03:39:37;;;;;;;;;;;;;;;-143.57;54.60;51318.88;5083696;28;19931;-65
2022/11/20 03:42:44;;;;;;;;;;;;;;;-143.57;55.39;51318.88;5078029;28;19928;-65
2022/11/20 03:44:50;;;;;;;;;;;;;;;-143.57;55.83;51295.03;5079189;28;19951;-64
2022/11/20 03:47:17;;;;;;;;;;;;;;;-143.57;57.31;51277.16;5077196;28;19920;-65
2022/11/20 03:49:43;;;;;;;;;;;;;;;-143.57;56.86;51340.75;5084224;28;20038;-65
2022/11/20 03:52:10;;;;;;;;;;;;;;;-143.57;57.88;51316.91;5081260;28;19928;-65
2022/11/20 03:54:37;;;;;;;;;;;;;;;-143.57;57.22;51291.06;5080078;28;19929;-65
2022/11/20 03:57:03;;;;;;;;;;;;;;;-143.57;56.18;51295.03;5076534;28;20022;-65
2022/11/20 03:59:30;;;;;;;;;;;;;;;-143.57;55.99;51277.16;5079576;28;19973;-65
2022/11/20 04:01:56;;;;;;;;;;;;;;;-143.57;56.09;51277.16;5080507;28;20055;-65
2022/11/20 04:04:23;;;;;;;;;;;;;;;-143.57;57.00;51287.09;5079110;28;19931;-65
2022/11/20 04:06:50;;;;;;;;;;;;;;;-143.57;56.15;51287.09;5084195;28;20752;-65
2022/11/20 04:09:16;;;;;;;;;;;;;;;-143.57;56.72;51303.00;5080169;28;20783;-65
2022/11/20 04:11:43;;;;;;;;;;;;;;;-143.57;57.16;51322.88;5085121;28;20001;-65
2022/11/20 04:14:14;;;;;;;;;;;;;;;-143.57;56.93;51301.00;5076732;28;19932;-65
2022/11/20 04:16:41;;;;;;;;;;;;;;;-143.57;55.96;51295.03;5081005;28;20363;-65
2022/11/20 04:19:15;;;;;;;;;;;;;;;-143.57;55.86;51314.91;5076950;28;19940;-65
2022/11/20 04:21:42;;;;;;;;;;;;;;;-143.57;55.81;51295.03;5079125;28;20301;-65
2022/11/20 04:24:10;;;;;;;;;;;;;;;-143.57;56.21;51299.00;5077438;28;20788;-65
2022/11/20 04:26:36;;;;;;;;;;;;;;;-143.57;56.98;51310.94;5078752;28;20313;-66
2022/11/20 04:29:03;;;;;;;;;;;;;;;-143.57;56.99;51287.09;5077437;28;19967;-65
2022/11/20 04:31:31;;;;;;;;;;;;;;;-143.57;57.03;51287.09;5082317;28;19928;-65
2022/11/20 04:34:02;;;;;;;;;;;;;;;-143.57;57.48;51303.00;5077641;28;19935;-68
2022/11/20 04:36:29;;;;;;;;;;;;;;;-143.57;58.53;51295.03;5077612;28;20290;-68
2022/11/20 04:38:57;;;;;;;;;;;;;;;-143.57;58.13;51301.00;5081118;28;20548;-68
2022/11/20 04:41:28;;;;;;;;;;;;;;;-143.57;58.71;51301.00;5073473;28;20616;-65
2022/11/20 04:43:59;;;;;;;;;;;;;;;-143.57;60.38;51299.00;5080240;28;19936;-65
2022/11/20 04:46:27;;;;;;;;;;;;;;;-143.57;61.39;51304.97;5075451;28;19928;-65
2022/11/20 04:48:53;;;;;;;;;;;;;;;-143.57;58.35;51299.00;5075393;28;19936;-65
2022/11/20 04:51:20;;;;;;;;;;;;;;;-143.57;56.95;51299.00;5075276;28;20005;-65
2022/11/20 04:53:47;;;;;;;;;;;;;;;-143.57;57.98;51299.00;5080047;28;19959;-65
2022/11/20 04:56:14;;;;;;;;;;;;;;;-143.57;58.79;51295.03;5080725;28;20064;-66
2022/11/20 04:58:40;;;;;;;;;;;;;;;-143.57;60.68;51299.00;5080141;28;20088;-65
2022/11/20 05:01:25;;;;;;;;;;;;;;;-143.57;59.60;51308.94;5075261;28;19924;-65
2022/11/20 05:03:52;;;;;;;;;;;;;;;-143.57;61.67;51291.06;5074208;28;20031;-65
2022/11/20 05:06:20;;;;;;;;;;;;;;;-143.57;62.06;51291.06;5077369;28;19928;-66
2022/11/20 05:08:47;;;;;;;;;;;;;;;-143.57;63.16;51287.09;5076854;28;19932;-65
2022/11/20 05:11:15;;;;;;;;;;;;;;;-143.57;63.55;51295.03;5076496;28;19928;-65
2022/11/20 05:13:42;;;;;;;;;;;;;;;-143.57;64.21;51293.03;5082345;28;20015;-65
2022/11/20 05:16:10;;;;;;;;;;;;;;;-143.57;63.65;51287.09;5077331;28;19928;-65
2022/11/20 05:18:37;;;;;;;;;;;;;;;-143.57;63.62;51299.00;5079903;28;20020;-66
2022/11/20 05:21:04;;;;;;;;;;;;;;;-143.57;63.34;51306.97;5076809;28;20634;-70
2022/11/20 05:23:31;;;;;;;;;;;;;;;-143.57;63.28;51297.03;5077195;28;20019;-70
2022/11/20 05:25:58;;;;;;;;;;;;;;;-143.57;64.31;51312.94;5080246;28;19939;-72
2022/11/20 05:28:26;;;;;;;;;;;;;;;-143.57;66.02;51310.94;5079245;28;20018;-67
2022/11/20 05:30:53;;;;;;;;;;;;;;;-143.57;67.65;51320.88;5081096;28;20837;-67
2022/11/20 05:33:20;;;;;;;;;;;;;;;-143.57;68.92;51287.09;5078205;28;20027;-66
2022/11/20 05:35:48;;;;;;;;;;;;;;;-143.57;71.09;51306.97;5086608;28;19924;-66
2022/11/20 05:38:14;;;;;;;;;;;;;;;-143.57;72.92;51306.97;5082154;28;19959;-66
2022/11/20 05:40:41;;;;;;;;;;;;;;;-143.57;73.72;51306.97;5082022;28;20000;-66
2022/11/20 05:43:08;;;;;;;;;;;;;;;-143.57;74.99;51303.00;5084494;28;19976;-66
2022/11/20 05:45:34;;;;;;;;;;;;;;;-143.57;75.87;51308.94;5081603;28;19932;-66
2022/11/20 05:48:01;;;;;;;;;;;;;;;-143.57;76.90;51279.13;5081976;28;19931;-66
2022/11/20 05:50:28;;;;;;;;;;;;;;;-143.57;77.18;51322.88;5084525;28;19928;-66
2022/11/20 05:52:54;;;;;;;;;;;;;;;-143.57;77.59;51328.81;5083101;28;19934;-66
2022/11/20 05:55:21;;;;;;;;;;;;;;;-143.57;78.97;51314.91;5080213;28;19935;-66
2022/11/20 05:57:47;;;;;;;;;;;;;;;-143.57;79.09;51306.97;5083732;28;20370;-66
2022/11/20 06:00:14;;;;;;;;;;;;;;;-143.57;78.74;51314.91;5080861;28;19994;-66
2022/11/20 06:02:41;;;;;;;;;;;;;;;-143.57;78.71;51279.13;5083649;28;19951;-66
2022/11/20 06:05:08;;;;;;;;;;;;;;;-143.57;78.28;51303.00;5080643;28;19959;-66
2022/11/20 06:07:35;;;;;;;;;;;;;;;-143.57;78.33;51316.91;5084477;28;20350;-66
2022/11/20 06:10:01;;;;;;;;;;;;;;;-143.57;79.20;51330.81;5081840;28;20019;-66
2022/11/20 06:12:28;;;;;;;;;;;;;;;-143.57;78.85;51326.84;5080155;28;19928;-66
2022/11/20 06:14:55;;;;;;;;;;;;;;;-143.57;79.20;51304.97;5083733;28;19946;-66
2022/11/20 06:17:21;;;;;;;;;;;;;;;-143.57;78.23;51322.88;5081763;28;20018;-66
2022/11/20 06:19:48;;;;;;;;;;;;;;;-143.57;76.38;51322.88;5085273;28;19936;-68
2022/11/20 06:22:14;;;;;;;;;;;;;;;-143.57;75.52;51316.91;5076656;28;20573;-66
2022/11/20 06:24:41;;;;;;;;;;;;;;;-143.57;76.15;51297.03;5082214;28;19928;-66
2022/11/20 06:27:08;;;;;;;;;;;;;;;-143.57;76.54;51320.88;5077661;28;19961;-67
2022/11/20 06:29:34;;;;;;;;;;;;;;;-143.57;77.50;51322.88;5081265;28;19925;-67
2022/11/20 06:32:01;;;;;;;;;;;;;;;-143.57;79.50;51306.97;5076813;28;20340;-67
2022/11/20 06:34:28;;;;;;;;;;;;;;;-143.57;80.88;51299.00;5082792;28;19924;-68
2022/11/20 06:36:54;;;;;;;;;;;;;;;-143.57;81.03;51291.06;5079955;28;19928;-68
2022/11/20 06:39:21;;;;;;;;;;;;;;;-143.57;81.02;51310.94;5079280;28;20036;-68
2022/11/20 06:41:48;;;;;;;;;;;;;;;-143.57;81.35;51312.94;5082476;28;20043;-67
2022/11/20 06:44:19;;;;;;;;;;;;;;;-143.57;79.98;51299.00;5081524;28;19928;-68
2022/11/20 06:46:46;;;;;;;;;;;;;;;-143.57;79.85;51322.88;5082279;28;19932;-68
2022/11/20 06:49:13;;;;;;;;;;;;;;;-143.57;78.03;51306.97;5079802;28;19941;-65
2022/11/20 06:51:39;;;;;;;;;;;;;;;-143.57;77.01;51301.00;5082818;28;19936;-65
2022/11/20 06:54:06;;;;;;;;;;;;;;;-143.57;75.90;51287.09;5078270;28;19936;-65
2022/11/20 06:56:32;;;;;;;;;;;;;;;-143.57;74.03;51303.00;5087085;28;20649;-65
2022/11/20 06:59:03;;;;;;;;;;;;;;;-143.57;72.34;51299.00;5076438;28;19989;-65
2022/11/20 07:01:30;;;;;;;;;;;;;;;-143.57;71.60;51291.06;5081949;28;20329;-65
2022/11/20 07:03:56;;;;;;;;;;;;;;;-143.57;71.93;51285.09;5082732;28;19932;-68
2022/11/20 07:06:23;;;;;;;;;;;;;;;-143.57;71.64;51314.91;5078362;28;19939;-67
2022/11/20 07:08:52;;;;;;;;;;;;;;;-143.57;70.98;51314.91;5078510;28;20478;-68
2022/11/20 07:11:19;;;;;;;;;;;;;;;-143.57;70.45;51303.00;5080436;28;20526;-68
2022/11/20 07:13:46;;;;;;;;;;;;;;;-143.57;69.09;51299.00;5079969;28;19928;-68
2022/11/20 07:16:12;;;;;;;;;;;;;;;-143.57;68.39;51283.09;5079619;28;19924;-67
2022/11/20 07:18:39;;;;;;;;;;;;;;;-143.57;67.99;51275.16;5080453;28;20676;-68
2022/11/20 07:21:07;;;;;;;;;;;;;;;-143.57;67.78;51314.91;5079709;28;19963;-68
2022/11/20 07:23:34;;;;;;;;;;;;;;;-143.57;68.04;51316.91;5084155;28;20657;-68
2022/11/20 07:26:07;;;;;;;;;;;;;;;-143.57;68.21;51295.03;5077451;28;19936;-68
2022/11/20 07:28:34;;;;;;;;;;;;;;;-143.57;68.26;51295.03;5079696;28;20324;-67
2022/11/20 07:31:01;;;;;;;;;;;;;;;-143.57;68.30;51275.16;5072189;28;19932;-66
2022/11/20 07:33:28;;;;;;;;;;;;;;;-143.57;67.44;51306.97;5081244;28;19967;-67
2022/11/20 07:35:55;;;;;;;;;;;;;;;-143.57;68.29;51310.94;5076679;28;19936;-66
2022/11/20 07:38:21;;;;;;;;;;;;;;;-143.57;67.24;51322.88;5077060;28;20012;-67
2022/11/20 07:40:48;;;;;;;;;;;;;;;-143.57;69.36;51299.00;5076629;28;19930;-66
2022/11/20 07:43:15;;;;;;;;;;;;;;;-143.57;70.43;51306.97;5078560;28;19924;-67
2022/11/20 07:45:44;;;;;;;;;;;;;;;-143.57;65.93;51299.00;5077946;28;19964;-67
2022/11/20 07:48:11;;;;;;;;;;;;;;;-143.57;67.28;51283.09;5073934;28;20074;-66
2022/11/20 07:50:44;;;;;;;;;;;;;;;-143.57;68.04;51295.03;5080627;28;20116;-67
2022/11/20 07:53:51;;;;;;;;;;;;;;;-143.57;70.79;51295.03;5098576;27;19916;-67
2022/11/20 07:56:18;;;;;;;;;;;;;;;-143.57;72.50;51318.88;5077289;28;19927;-66
2022/11/20 07:58:45;;;;;;;;;;;;;;;-143.57;74.36;51263.22;5071545;28;20691;-67
2022/11/20 08:01:11;;;;;;;;;;;;;;;-143.57;78.17;51312.94;5078037;28;20074;-66
2022/11/20 08:03:38;;;;;;;;;;;;;;;-143.57;75.81;51293.03;5075977;28;19928;-67
2022/11/20 08:06:05;;;;;;;;;;;;;;;-143.57;76.08;51291.06;5077901;28;19929;-66
2022/11/20 08:08:31;;;;;;;;;;;;;;;-143.57;76.31;51322.88;5073459;28;19932;-67
2022/11/20 08:16:30;;;;;;;;;;;;;;;-143.57;85.25;51334.78;5076037;28;20692;-67
2022/11/20 08:18:56;;;;;;;;;;;;;;;-143.57;83.16;51303.00;5075418;28;20015;-69
2022/11/20 08:21:23;;;;;;;;;;;;;;;-143.57;83.82;51303.00;5078439;28;19924;-70
2022/11/20 08:23:50;;;;;;;;;;;;;;;-143.57;84.01;51299.00;5076027;28;21404;-69
2022/11/20 08:26:17;;;;;;;;;;;;;;;-143.57;92.56;51299.00;5072132;28;19932;-69
2022/11/20 08:28:44;;;;;;;;;;;;;;;-143.57;96.17;51293.03;5076696;28;19931;-67
2022/11/20 08:31:10;;;;;;;;;;;;;;;-143.57;93.02;51316.91;5076707;28;19958;-71
2022/11/20 08:33:37;;;;;;;;;;;;;;;-143.57;93.42;51287.09;5075979;28;19930;-67
2022/11/20 08:36:04;;;;;;;;;;;;;;;-143.57;94.06;51322.88;5077153;28;19938;-67
2022/11/20 08:38:32;;;;;;;;;;;;;;;-143.57;94.25;51301.00;5080735;28;19931;-68
2022/11/20 08:43:44;;;;;;;;;;;;;;;-143.57;97.07;51291.06;5083120;28;20019;-66
2022/11/20 08:46:11;;;;;;;;;;;;;;;-143.57;97.76;51297.03;5077382;28;20027;-66
2022/11/20 08:48:37;;;;;;;;;;;;;;;-143.57;97.20;51312.94;5084471;28;19958;-66
2022/11/20 08:51:04;;;;;;;;;;;;;;;-143.57;96.87;51303.00;5078966;28;19924;-67
2022/11/20 08:53:32;;;;;;;;;;;;;;;-143.57;97.60;51275.16;5082705;28;19928;-68
2022/11/20 08:55:59;;;;;;;;;;;;;;;-143.57;96.35;51370.56;5077281;28;19989;-67
2022/11/20 08:58:25;;;;;;;;;;;;;;;-143.57;96.47;51303.00;5085895;28;19936;-67
2022/11/20 09:00:52;;;;;;;;;;;;;;;-143.57;99.35;51295.03;5083977;28;19932;-67
2022/11/20 09:03:19;;;;;;;;;;;;;;;-143.57;99.17;51322.88;5083891;28;19982;-67
2022/11/20 09:05:46;;;;;;;;;;;;;;;-143.57;99.02;51346.72;5084106;28;20669;-67
2022/11/20 09:08:12;;;;;;;;;;;;;;;-143.57;100.00;51338.78;5084722;28;19934;-68
2022/11/20 09:10:39;;;;;;;;;;;;;;;-143.57;100.00;51306.97;5086383;28;19993;-68
2022/11/20 09:13:06;;;;;;;;;;;;;;;-143.57;100.00;51271.19;5084848;28;19984;-67
2022/11/20 09:15:33;;;;;;;;;;;;;;;-143.57;100.00;51358.66;5086918;28;20014;-68
2022/11/20 09:18:04;;;;;;;;;;;;;;;-143.57;100.00;51316.91;5086540;28;19923;-71
2022/11/20 09:20:31;;;;;;;;;;;;;;;-143.57;100.00;51334.78;5086825;28;19932;-70
2022/11/20 09:22:58;;;;;;;;;;;;;;;-143.57;100.00;51316.91;5087321;28;19932;-68
2022/11/20 09:25:25;;;;;;;;;;;;;;;-143.57;100.00;51314.91;5083925;28;19935;-68
2022/11/20 09:27:55;;;;;;;;;;;;;;;-143.57;100.00;51330.81;5085506;28;19982;-68
2022/11/20 09:30:22;;;;;;;;;;;;;;;-143.57;100.00;51330.81;5088332;28;19924;-69
2022/11/20 09:32:48;;;;;;;;;;;;;;;-143.57;100.00;51322.88;5085279;28;20482;-68
2022/11/20 09:35:16;;;;;;;;;;;;;;;-143.57;100.00;51293.03;5086739;28;19927;-68
2022/11/20 09:37:42;;;;;;;;;;;;;;;-143.57;100.00;51358.66;5087337;28;20452;-68
2022/11/20 09:40:23;;;;;;;;;;;;;;;-143.57;100.00;51342.75;5083640;28;20007;-68
2022/11/20 09:42:49;;;;;;;;;;;;;;;-143.57;100.00;51291.06;5081973;28;20014;-68
2022/11/20 09:45:34;;;;;;;;;;;;;;;-143.57;100.00;51314.91;5083684;28;20721;-68
2022/11/20 09:48:04;;;;;;;;;;;;;;;-143.57;100.00;51320.88;5086180;28;20602;-68
2022/11/20 09:51:06;;;;;;;;;;;;;;;-143.57;100.00;51342.75;5083312;28;19919;-68
2022/11/20 09:53:56;;;;;;;;;;;;;;;-143.57;100.00;51342.75;5020623;28;19932;-68
2022/11/20 09:56:23;;;;;;;;;;;;;;;-143.57;100.00;51362.63;5051601;28;20010;-68
2022/11/20 09:58:51;;;;;;;;;;;;;;;-143.57;100.00;51326.84;5085520;28;20040;-66
2022/11/20 10:01:19;;;;;;;;;;;;;;;-143.57;100.00;51328.81;5082391;28;19924;-67
2022/11/20 10:04:04;;;;;;;;;;;;;;;-143.57;100.00;51354.66;5081787;28;19934;-67
2022/11/20 10:06:32;;;;;;;;;;;;;;;-143.57;100.00;51330.81;5081639;28;20485;-67
2022/11/20 10:08:59;;;;;;;;;;;;;;;-143.57;100.00;51314.91;5085693;28;20831;-67
2022/11/20 10:11:49;;;;;;;;;;;;;;;-143.57;100.00;51354.66;5085851;28;19931;-68
2022/11/20 10:14:15;;;;;;;;;;;;;;;-143.57;100.00;51374.56;5065040;28;19924;-69
2022/11/20 10:17:01;;;;;;;;;;;;;;;-143.57;100.00;51334.78;5081174;28;19928;-73
2022/11/20 10:19:27;;;;;;;;;;;;;;;-143.57;100.00;51322.88;5085551;28;19924;-68
2022/11/20 10:22:09;;;;;;;;;;;;;;;-143.57;100.00;51390.47;5083760;28;19924;-69
2022/11/20 10:24:55;;;;;;;;;;;;;;;-143.57;100.00;51352.69;5082044;28;19931;-68
2022/11/20 10:27:44;;;;;;;;;;;;;;;-143.57;100.00;51360.63;5077878;28;20096;-70
2022/11/20 10:30:12;;;;;;;;;;;;;;;-143.57;100.00;51382.50;5086976;28;19932;-67
2022/11/20 10:33:08;;;;;;;;;;;;;;;-143.57;100.00;51318.88;5079961;28;19953;-67
2022/11/20 10:35:39;;;;;;;;;;;;;;;-143.57;100.00;51356.66;5068967;28;20605;-68
2022/11/20 10:38:14;;;;;;;;;;;;;;;-143.57;100.00;51350.69;5082765;28;19932;-68
2022/11/20 10:40:43;;;;;;;;;;;;;;;-143.57;100.00;51354.66;5087751;28;19967;-67
2022/11/20 10:43:14;;;;;;;;;;;;;;;-143.57;100.00;51350.69;5083815;28;20337;-67
2022/11/20 10:45:58;;;;;;;;;;;;;;;-143.57;100.00;51322.88;5084770;28;19935;-67
2022/11/20 10:48:26;;;;;;;;;;;;;;;-143.57;100.00;51350.69;5083129;28;19935;-66
2022/11/20 10:51:12;;;;;;;;;;;;;;;-143.57;100.00;51372.56;5086907;28;20046;-67
2022/11/20 10:53:39;;;;;;;;;;;;;;;-143.57;100.00;51342.75;5076916;28;19929;-67
2022/11/20 10:56:11;;;;;;;;;;;;;;;-143.57;100.00;51364.63;5085336;28;20033;-67
2022/11/20 10:58:38;;;;;;;;;;;;;;;-143.57;100.00;51344.72;5079796;28;19932;-67
2022/11/20 11:01:13;;;;;;;;;;;;;;;-143.57;100.00;51342.75;5078533;28;19928;-69
2022/11/20 11:03:43;;;;;;;;;;;;;;;-143.57;100.00;51346.72;5079183;28;19924;-65
2022/11/20 11:06:28;;;;;;;;;;;;;;;-143.57;100.00;51360.63;5080016;28;20602;-67
2022/11/20 11:08:56;;;;;;;;;;;;;;;-143.57;100.00;51334.78;5078000;28;20750;-67
2022/11/20 11:11:24;;;;;;;;;;;;;;;-143.57;100.00;51362.63;5076210;28;19931;-66
2022/11/20 11:13:51;;;;;;;;;;;;;;;-143.57;100.00;51338.78;5080079;28;19935;-65
2022/11/20 11:16:22;;;;;;;;;;;;;;;-143.57;100.00;51374.56;5075945;28;19928;-66
2022/11/20 11:18:49;;;;;;;;;;;;;;;-143.57;100.00;51342.75;5082055;28;19924;-67
2022/11/20 11:21:22;;;;;;;;;;;;;;;-143.57;100.00;51338.78;5079079;28;19924;-66
2022/11/20 11:23:57;;;;;;;;;;;;;;;-143.57;100.00;51342.75;5081520;28;19939;-67
2022/11/20 11:26:50;;;;;;;;;;;;;;;-143.57;100.00;51322.88;5085550;28;20073;-68
2022/11/20 11:29:17;;;;;;;;;;;;;;;-143.57;100.00;51362.63;5077590;28;19924;-68
2022/11/20 11:31:44;;;;;;;;;;;;;;;-143.57;100.00;51362.63;5083443;28;19950;-68
2022/11/20 11:34:12;;;;;;;;;;;;;;;-143.57;100.00;51366.59;5082876;28;19924;-67
2022/11/20 11:36:39;;;;;;;;;;;;;;;-143.57;100.00;51362.63;5079976;28;20557;-67
2022/11/20 11:39:10;;;;;;;;;;;;;;;-143.57;100.00;51354.66;5085863;28;19928;-66
2022/11/20 11:41:36;;;;;;;;;;;;;;;-143.57;100.00;51326.84;5083961;28;19976;-70
2022/11/20 11:47:01;;;;;;;;;;;;;;;-143.57;100.00;51346.72;5084943;28;19935;-70
2022/11/20 11:49:27;;;;;;;;;;;;;;;-143.57;100.00;51346.72;5084473;28;19964;-68
2022/11/20 11:51:59;;;;;;;;;;;;;;;-143.57;100.00;51348.72;5079411;28;19935;-70
2022/11/20 11:54:30;;;;;;;;;;;;;;;-143.57;100.00;51332.81;5080404;28;19928;-68
2022/11/20 11:56:59;;;;;;;;;;;;;;;-143.57;100.00;51370.56;5083464;28;19938;-67
2022/11/20 11:59:51;;;;;;;;;;;;;;;-143.57;100.00;51378.53;5082218;28;19928;-68
2022/11/20 12:02:40;;;;;;;;;;;;;;;-143.57;100.00;51334.78;5077876;28;19997;-71
2022/11/20 12:05:16;;;;;;;;;;;;;;;-143.57;100.00;51346.72;5081573;28;19939;-72
2022/11/20 12:07:55;;;;;;;;;;;;;;;-143.57;100.00;51352.69;5078710;28;19936;-72
2022/11/20 12:10:23;;;;;;;;;;;;;;;-143.57;100.00;51346.72;5079166;28;20044;-72
2022/11/20 12:12:58;;;;;;;;;;;;;;;-143.57;100.00;51352.69;5083824;28;19938;-71
2022/11/20 12:15:33;;;;;;;;;;;;;;;-143.57;100.00;51362.63;5083837;28;19931;-67
2022/11/20 12:18:00;;;;;;;;;;;;;;;-143.57;100.00;51350.69;5078761;28;20656;-69
2022/11/20 12:20:32;;;;;;;;;;;;;;;-143.57;100.00;51330.81;5079759;28;20078;-69
2022/11/20 12:23:09;;;;;;;;;;;;;;;-143.57;100.00;51370.56;5080737;28;19959;-72
2022/11/20 12:25:37;;;;;;;;;;;;;;;-143.57;100.00;51362.63;5074598;28;19981;-70
2022/11/20 12:28:04;;;;;;;;;;;;;;;-143.57;100.00;51380.50;5081779;28;20038;-72
2022/11/20 12:30:35;;;;;;;;;;;;;;;-143.57;100.00;51390.47;5075684;28;19928;-70
2022/11/20 12:33:20;;;;;;;;;;;;;;;-143.57;100.00;51364.63;5079877;28;19967;-69
2022/11/20 12:35:47;;;;;;;;;;;;;;;-143.57;100.00;51334.78;5074761;28;20546;-70
2022/11/20 12:38:23;;;;;;;;;;;;;;;-143.57;100.00;51326.84;5080945;28;19932;-78
2022/11/20 12:40:58;;;;;;;;;;;;;;;-143.57;100.00;51330.81;5077694;28;19932;-76
2022/11/20 12:46:24;;;;;;;;;;;;;;;-143.57;100.00;51386.47;5076038;28;19981;-77
2022/11/20 12:48:56;;;;;;;;;;;;;;;-143.57;100.00;51366.59;5079237;28;19927;-77
2022/11/20 12:51:38;;;;;;;;;;;;;;;-143.57;100.00;51336.78;5075568;28;19989;-77
2022/11/20 12:54:10;;;;;;;;;;;;;;;-143.57;100.00;51326.84;5078526;28;19930;-74
2022/11/20 12:56:40;;;;;;;;;;;;;;;-143.57;100.00;51366.59;5106504;27;19947;-74